Hauptseite
METAR-TAF:

METAR-TAF

Flughäfen :

Militärflugplatz Volkel

Uden, Niederlande

Breite: 51-39N, Länge: 005-42E, Höhe: 22 m

Beobachtung

Neuester Wetterbericht von vor 15 Minuten, um 02:55 UTC
Wind 5 kt aus Ost/Nordost
Temperatur 0°C
Luftfeuchtigkeit 93%
Luftdruck 1029 hPa
Sichtweite: 7000 m
feuchter Dunst

METAR: EHVK 170255Z AUTO 06005KT 7000 BR NCD 00/M01 Q1029 WHT

Zeit: 04:10 (03:10 UTC)

Prognose

Neuester Wetterbericht von vor 17 Stunden und 48 Minuten, um 09:22 UTC
Gültige Prognose vom 16 um 10 UTC bis 16 um 22 UTC
Wind 6 kt aus Ost
Sichtweite: 3000 m
feuchter Dunst
Übergehend zu
vom 16 um 10 UTC bis 16 um 12 UTC
Sichtweite: 6000 m

TAF: EHVK 160922Z 1610/1622 09006KT 3000 BR NSC BECMG 1610/1612 6000 NSW

Wetterbeobachtungen und Prognosen von mehr als 4000 Flughäfen (METAR und TAF Bericht).

Die verfügbaren Stationen werden durch gelbe und rote Markierungen auf der Karte dargestellt.

Führen Sie die Maus auf sie, um den Namen der Station zu sehen.

Darauf klicken, um die Beobachtung von Wetterbeobachtungen und Prognosen zu sehen.

Um die Karte zu ändern : klicken Sie auf den grünen Tasten mit einem schwarzen Kreuz Zum Vergrößern, auf den grünen Button mit einem Gedankenstrich zu verkleinern, oder auf die grünen Pfeile für benachbarte Karten.


METAR-TAF: